Time;durP1;ratioP1;P1;durP2;ratioP2;P2;SDS_P1;SDS_P2;PMS_P1;PMS_P2;Temp;Humidity;BMP_temperature;BMP_pressure;BME280_temperature;BME280_humidity;BME280_pressure;Samples;Min_cycle;Max_cycle;Signal;HPM_P1;HPM_P2
2022/08/24 00:01:17;;;;;;;4.87;3.57;;;23.70;99.90;;;;;;5053794;28;20468;-74
2022/08/24 00:04:02;;;;;;;4.00;3.67;;;23.70;99.90;;;;;;5052052;28;20487;-74
2022/08/24 00:06:30;;;;;;;4.67;4.23;;;23.60;99.90;;;;;;5053787;28;20529;-75
2022/08/24 00:09:03;;;;;;;4.60;3.93;;;23.60;99.90;;;;;;5054931;28;20580;-75
2022/08/24 00:11:32;;;;;;;5.40;3.67;;;23.50;99.90;;;;;;5053682;28;20869;-74
2022/08/24 00:14:00;;;;;;;4.13;3.73;;;23.40;99.90;;;;;;5030730;28;20475;-74
2022/08/24 00:16:33;;;;;;;5.50;3.17;;;23.20;99.90;;;;;;5046826;28;20465;-74
2022/08/24 00:19:09;;;;;;;4.73;4.27;;;23.00;99.90;;;;;;5055266;28;20951;-75
2022/08/24 00:21:43;;;;;;;4.37;3.50;;;22.80;99.90;;;;;;5056207;28;20456;-73
2022/08/24 00:24:13;;;;;;;4.20;3.30;;;22.80;99.90;;;;;;5053048;28;21001;-74
2022/08/24 00:26:44;;;;;;;4.10;3.27;;;22.80;99.90;;;;;;5053228;28;20486;-74
2022/08/24 00:29:19;;;;;;;7.40;3.60;;;22.80;99.90;;;;;;5058645;28;20531;-74
2022/08/24 00:31:52;;;;;;;5.50;4.80;;;22.90;99.90;;;;;;5058808;28;20526;-74
2022/08/24 00:34:33;;;;;;;4.50;3.90;;;22.90;99.90;;;;;;5052810;28;20479;-74
2022/08/24 00:37:00;;;;;;;4.27;3.93;;;22.70;99.90;;;;;;5062083;28;20501;-73
2022/08/24 00:39:33;;;;;;;5.53;4.07;;;22.70;99.90;;;;;;5057938;28;20452;-73
2022/08/24 00:42:04;;;;;;;4.30;3.83;;;22.40;99.90;;;;;;5058241;28;20552;-75
2022/08/24 00:44:40;;;;;;;4.10;3.70;;;22.50;99.90;;;;;;5056045;28;20516;-75
2022/08/24 00:47:17;;;;;;;4.17;3.50;;;22.70;99.90;;;;;;5053691;28;20526;-75
2022/08/24 00:49:58;;;;;;;5.43;4.30;;;22.60;99.90;;;;;;5054185;28;20457;-75
2022/08/24 00:52:30;;;;;;;6.97;4.27;;;22.70;99.90;;;;;;5052712;28;20465;-75
2022/08/24 00:55:07;;;;;;;8.57;4.10;;;22.60;99.90;;;;;;5043415;28;20484;-76
2022/08/24 00:57:45;;;;;;;6.67;4.10;;;22.50;99.90;;;;;;5056962;28;20577;-75
2022/08/24 01:00:19;;;;;;;8.20;4.47;;;22.60;99.90;;;;;;5057660;28;20461;-75
2022/08/24 01:02:57;;;;;;;5.00;4.50;;;22.70;99.90;;;;;;5059012;28;20469;-75
2022/08/24 01:05:30;;;;;;;8.10;4.70;;;22.80;99.90;;;;;;5056799;28;20568;-75
2022/08/24 01:07:57;;;;;;;5.10;4.43;;;22.80;99.90;;;;;;5056991;28;20488;-75
2022/08/24 01:10:27;;;;;;;9.47;3.90;;;22.70;99.90;;;;;;5059796;28;20472;-75
2022/08/24 01:13:05;;;;;;;7.70;5.23;;;22.70;99.90;;;;;;5057601;28;20453;-75
2022/08/24 01:15:43;;;;;;;5.57;4.53;;;22.80;99.90;;;;;;5060949;28;20472;-74
2022/08/24 01:21:22;;;;;;;6.60;3.60;;;21.90;99.90;;;;;;5049645;28;20529;-75
2022/08/24 01:23:55;;;;;;;5.23;3.53;;;21.70;99.90;;;;;;5050917;28;20473;-74
2022/08/24 01:26:28;;;;;;;4.57;4.00;;;21.80;99.90;;;;;;5053595;28;20586;-75
2022/08/24 01:29:09;;;;;;;4.37;3.90;;;21.90;99.90;;;;;;5055234;28;20842;-74
2022/08/24 01:31:36;;;;;;;11.20;4.87;;;22.10;99.90;;;;;;5056622;28;20456;-75
2022/08/24 01:34:08;;;;;;;5.90;4.20;;;22.10;99.90;;;;;;5055564;28;20532;-75
2022/08/24 01:36:38;;;;;;;6.67;4.17;;;22.10;99.90;;;;;;5060166;28;20455;-75
2022/08/24 01:39:27;;;;;;;5.83;4.87;;;22.10;99.90;;;;;;5052778;28;20736;-75
2022/08/24 01:42:09;;;;;;;5.13;4.50;;;22.10;99.90;;;;;;5044160;28;20494;-74
2022/08/24 01:44:38;;;;;;;5.60;4.27;;;22.10;99.90;;;;;;5058800;28;20470;-75
2022/08/24 01:47:12;;;;;;;5.23;4.73;;;21.80;99.90;;;;;;5062212;28;20476;-74
2022/08/24 01:49:43;;;;;;;7.73;4.30;;;21.60;99.90;;;;;;5050641;28;20543;-75
2022/08/24 01:52:17;;;;;;;7.63;4.30;;;21.60;99.90;;;;;;5058340;28;21187;-75
2022/08/24 01:54:49;;;;;;;5.50;4.67;;;21.60;99.90;;;;;;5058019;28;20497;-74
2022/08/24 01:57:22;;;;;;;10.50;4.40;;;21.60;99.90;;;;;;5063167;28;20480;-74
2022/08/24 01:59:52;;;;;;;6.50;4.70;;;21.40;99.90;;;;;;5053934;28;20533;-74
2022/08/24 02:02:25;;;;;;;7.30;4.03;;;21.40;99.90;;;;;;5060444;28;20923;-74
2022/08/24 02:05:04;;;;;;;5.87;4.40;;;21.50;99.90;;;;;;5055976;28;20507;-74
2022/08/24 02:07:31;;;;;;;5.50;4.57;;;21.60;99.90;;;;;;5049658;28;20550;-74
2022/08/24 02:10:02;;;;;;;5.37;4.60;;;21.50;99.90;;;;;;5058703;28;20937;-74
2022/08/24 02:12:42;;;;;;;5.83;4.37;;;21.30;99.90;;;;;;5057170;28;20988;-74
2022/08/24 02:17:52;;;;;;;6.63;5.17;;;21.20;99.90;;;;;;5055814;28;20464;-74
2022/08/24 02:20:31;;;;;;;5.80;4.07;;;21.20;99.90;;;;;;5053853;28;20468;-74
2022/08/24 02:23:05;;;;;;;7.97;4.50;;;21.10;99.90;;;;;;5053765;28;20461;-75
2022/08/24 02:25:34;;;;;;;12.63;5.13;;;21.10;99.90;;;;;;5046124;28;20484;-74
2022/08/24 02:28:05;;;;;;;5.73;4.67;;;21.10;99.90;;;;;;5058946;28;20496;-74
2022/08/24 02:30:38;;;;;;;4.20;3.80;;;21.30;99.90;;;;;;5053535;28;20452;-74
2022/08/24 02:33:19;;;;;;;5.57;5.07;;;21.30;99.90;;;;;;5062305;28;20453;-74
2022/08/24 02:35:48;;;;;;;5.87;4.27;;;21.40;99.90;;;;;;5063118;28;20473;-74
2022/08/24 02:38:18;;;;;;;5.43;4.93;;;21.20;99.90;;;;;;5057472;28;20459;-74
2022/08/24 02:40:50;;;;;;;5.93;5.00;;;21.30;99.90;;;;;;5057686;28;20471;-74
2022/08/24 02:43:21;;;;;;;5.80;5.20;;;21.20;99.90;;;;;;5064198;28;20457;-74
2022/08/24 02:45:55;;;;;;;7.77;4.07;;;21.00;99.90;;;;;;5053489;28;20467;-74
2022/08/24 02:48:27;;;;;;;8.90;3.60;;;21.10;99.90;;;;;;5056586;28;20484;-74
2022/08/24 02:51:07;;;;;;;4.50;3.67;;;20.90;99.90;;;;;;5050965;28;20471;-75
2022/08/24 02:53:35;;;;;;;6.43;4.20;;;20.80;99.90;;;;;;5051119;28;20454;-74
2022/08/24 02:56:10;;;;;;;7.23;4.67;;;20.80;99.90;;;;;;5057088;28;20448;-75
2022/08/24 02:58:42;;;;;;;5.70;3.97;;;20.80;99.90;;;;;;5056631;28;20465;-74
2022/08/24 03:01:11;;;;;;;11.73;5.47;;;20.70;99.90;;;;;;5053578;28;20448;-75
2022/08/24 03:03:38;;;;;;;4.47;4.07;;;20.70;99.90;;;;;;5047047;28;20463;-76
2022/08/24 03:06:06;;;;;;;4.10;3.70;;;20.70;99.90;;;;;;5055545;28;20469;-75
2022/08/24 03:08:35;;;;;;;7.90;4.60;;;20.70;99.90;;;;;;5053066;28;20484;-75
2022/08/24 03:11:07;;;;;;;5.57;4.07;;;20.80;99.90;;;;;;5051638;28;20464;-75
2022/08/24 03:13:40;;;;;;;9.83;5.27;;;20.80;99.90;;;;;;5056655;28;20525;-73
2022/08/24 03:18:53;;;;;;;6.17;4.30;;;20.90;99.90;;;;;;5061569;28;20457;-75
2022/08/24 03:21:26;;;;;;;5.00;3.90;;;20.70;99.90;;;;;;5060962;28;20455;-75
2022/08/24 03:23:53;;;;;;;4.97;4.10;;;20.50;99.90;;;;;;5065864;28;20479;-75
2022/08/24 03:26:22;;;;;;;7.97;4.00;;;20.50;99.90;;;;;;5065000;28;20900;-75
2022/08/24 03:28:50;;;;;;;5.37;4.10;;;20.40;99.90;;;;;;5061560;28;21098;-75
2022/08/24 03:31:23;;;;;;;7.37;3.93;;;20.10;99.90;;;;;;5066970;28;20489;-75
2022/08/24 03:33:52;;;;;;;10.97;5.83;;;19.80;99.90;;;;;;5059501;28;20506;-75
2022/08/24 03:36:21;;;;;;;15.50;4.17;;;19.90;99.90;;;;;;5056131;28;21100;-73
2022/08/24 03:38:49;;;;;;;5.70;4.30;;;20.00;99.90;;;;;;5064981;28;20452;-74
2022/08/24 03:41:16;;;;;;;5.70;4.93;;;20.10;99.90;;;;;;5065068;28;20953;-74
2022/08/24 03:43:47;;;;;;;7.53;4.23;;;20.20;99.90;;;;;;5063368;28;20567;-74
2022/08/24 03:46:25;;;;;;;5.20;3.77;;;20.20;99.90;;;;;;5057614;28;20546;-74
2022/08/24 03:48:54;;;;;;;8.43;4.47;;;20.30;99.90;;;;;;5055099;28;21026;-75
2022/08/24 03:51:26;;;;;;;6.53;4.03;;;20.30;99.90;;;;;;5058709;28;20472;-74
2022/08/24 03:54:02;;;;;;;8.53;4.87;;;20.40;99.90;;;;;;5050419;28;20562;-74
2022/08/24 03:56:29;;;;;;;4.30;3.47;;;20.40;99.90;;;;;;5053460;28;20452;-74
2022/08/24 03:59:13;;;;;;;6.67;3.80;;;20.20;99.90;;;;;;5058878;28;20471;-74
2022/08/24 04:01:43;;;;;;;6.77;4.20;;;20.10;99.90;;;;;;5049923;28;20487;-74
2022/08/24 04:04:22;;;;;;;10.53;4.90;;;20.20;99.90;;;;;;5046207;28;20942;-75
2022/08/24 04:06:49;;;;;;;5.63;4.40;;;20.20;99.90;;;;;;5055833;28;20464;-74
2022/08/24 04:09:28;;;;;;;7.23;6.10;;;20.10;99.90;;;;;;5057285;28;20536;-74
2022/08/24 04:11:55;;;;;;;4.23;3.83;;;20.20;99.90;;;;;;5050165;28;20457;-74
2022/08/24 04:14:33;;;;;;;5.40;4.90;;;20.20;99.90;;;;;;5059720;28;20532;-74
2022/08/24 04:17:04;;;;;;;18.07;6.00;;;20.30;99.90;;;;;;5050009;28;20470;-75
2022/08/24 04:19:34;;;;;;;14.43;5.73;;;20.30;99.90;;;;;;5057681;28;20961;-74
2022/08/24 04:22:04;;;;;;;10.70;4.53;;;20.30;99.90;;;;;;5063258;28;20512;-75
2022/08/24 04:24:35;;;;;;;6.63;4.60;;;20.30;99.90;;;;;;5059186;28;20491;-75
2022/08/24 04:27:05;;;;;;;7.70;5.00;;;20.20;99.90;;;;;;5054316;28;21761;-75
2022/08/24 04:29:34;;;;;;;6.90;4.00;;;20.10;99.90;;;;;;5055441;28;20475;-75
2022/08/24 04:32:01;;;;;;;26.63;5.30;;;20.00;99.90;;;;;;5058006;28;20455;-76
2022/08/24 04:34:30;;;;;;;5.60;4.53;;;19.80;99.90;;;;;;5048747;28;20886;-75
2022/08/24 04:37:04;;;;;;;11.30;5.17;;;19.80;99.90;;;;;;5044364;28;20455;-75
2022/08/24 04:39:33;;;;;;;7.13;4.77;;;19.80;99.90;;;;;;5055693;28;21046;-75
2022/08/24 04:42:05;;;;;;;6.50;4.70;;;19.90;99.90;;;;;;5056331;28;20463;-75
2022/08/24 04:44:37;;;;;;;12.73;5.23;;;19.90;99.90;;;;;;5057640;28;20498;-75
2022/08/24 04:47:07;;;;;;;17.60;5.43;;;20.00;99.90;;;;;;5050135;28;20630;-76
2022/08/24 04:49:39;;;;;;;18.40;6.77;;;20.00;99.90;;;;;;5052119;28;20804;-75
2022/08/24 04:52:09;;;;;;;16.10;4.50;;;20.00;99.90;;;;;;5063172;28;20450;-75
2022/08/24 04:54:38;;;;;;;18.77;5.47;;;19.90;99.90;;;;;;5059477;28;20479;-75
2022/08/24 04:57:07;;;;;;;9.67;5.33;;;20.00;99.90;;;;;;5052449;28;20447;-76
2022/08/24 04:59:57;;;;;;;12.13;5.77;;;20.10;99.90;;;;;;5063681;28;20429;-75
2022/08/24 05:02:26;;;;;;;14.87;5.33;;;20.10;99.90;;;;;;5055953;28;21007;-75
2022/08/24 05:04:57;;;;;;;22.97;5.80;;;20.10;99.90;;;;;;5056611;28;20454;-75
2022/08/24 05:07:26;;;;;;;13.20;5.03;;;20.10;99.90;;;;;;5061533;28;20515;-75
2022/08/24 05:10:00;;;;;;;11.40;5.40;;;20.20;99.90;;;;;;5069015;28;20511;-75
2022/08/24 05:12:31;;;;;;;7.80;5.23;;;20.20;99.90;;;;;;5055090;28;20964;-76
2022/08/24 05:15:07;;;;;;;47.67;5.60;;;20.20;99.90;;;;;;5057876;28;20480;-75
2022/08/24 05:17:46;;;;;;;15.50;6.23;;;20.20;99.90;;;;;;5058953;28;20482;-75
2022/08/24 05:20:14;;;;;;;13.47;5.67;;;20.20;99.90;;;;;;5060570;28;20447;-74
2022/08/24 05:22:43;;;;;;;15.50;5.97;;;20.40;99.90;;;;;;5057222;28;20449;-75
2022/08/24 05:25:20;;;;;;;11.50;5.60;;;20.50;99.90;;;;;;5056505;28;20897;-75
2022/08/24 05:27:59;;;;;;;17.37;9.17;;;20.70;99.90;;;;;;5053774;28;20583;-75
2022/08/24 05:30:35;;;;;;;17.30;5.00;;;21.00;99.90;;;;;;5051130;28;20479;-75
2022/08/24 05:33:03;;;;;;;18.17;7.00;;;21.00;99.90;;;;;;5055738;28;20462;-75
2022/08/24 05:35:34;;;;;;;11.80;6.13;;;20.70;99.90;;;;;;5061793;28;20541;-75
2022/08/24 05:38:08;;;;;;;14.10;5.20;;;20.50;99.90;;;;;;5054366;28;20461;-74
2022/08/24 05:40:37;;;;;;;14.90;6.60;;;20.60;99.90;;;;;;5054803;28;20556;-74
2022/08/24 05:43:16;;;;;;;11.73;6.50;;;20.50;99.90;;;;;;5059212;28;20461;-75
2022/08/24 05:46:01;;;;;;;26.43;6.47;;;20.80;99.90;;;;;;5058301;28;20533;-75
2022/08/24 05:48:37;;;;;;;12.57;5.63;;;21.40;99.90;;;;;;5052954;28;20481;-74
2022/08/24 05:51:18;;;;;;;19.33;6.73;;;22.00;99.90;;;;;;5059026;28;20954;-74
2022/08/24 05:53:50;;;;;;;11.90;6.80;;;22.60;99.90;;;;;;5063219;28;20583;-74
2022/08/24 05:56:26;;;;;;;8.37;5.83;;;23.10;99.90;;;;;;5057510;28;20495;-74
2022/08/24 05:59:03;;;;;;;9.20;4.20;;;23.70;99.90;;;;;;5058239;28;20521;-74
2022/08/24 06:01:34;;;;;;;11.23;5.43;;;24.30;99.90;;;;;;5057833;28;20449;-75
2022/08/24 06:04:01;;;;;;;17.93;5.57;;;25.00;99.90;;;;;;5065053;22;20504;-73
2022/08/24 06:06:28;;;;;;;14.83;5.40;;;25.00;99.90;;;;;;5029983;28;20830;-72
2022/08/24 06:08:57;;;;;;;9.67;5.13;;;25.00;99.90;;;;;;5036541;28;20498;-72
2022/08/24 06:11:26;;;;;;;7.53;5.33;;;24.80;99.90;;;;;;5039536;28;20797;-72
2022/08/24 06:13:55;;;;;;;12.17;4.93;;;24.30;99.90;;;;;;5037865;28;21062;-72
2022/08/24 06:16:22;;;;;;;19.10;9.23;;;24.10;99.90;;;;;;5033041;28;20946;-72
2022/08/24 06:18:52;;;;;;;19.50;9.37;;;23.80;99.90;;;;;;5033437;28;20461;-73
2022/08/24 06:21:22;;;;;;;7.10;5.43;;;23.60;99.90;;;;;;5038684;28;20820;-71
2022/08/24 06:23:49;;;;;;;9.40;5.20;;;23.20;99.90;;;;;;5037424;28;20838;-72
2022/08/24 06:29:02;;;;;;;10.43;5.50;;;23.10;99.90;;;;;;5042207;28;20479;-72
2022/08/24 06:31:29;;;;;;;10.27;8.23;;;23.50;99.90;;;;;;5030232;28;20999;-72
2022/08/24 06:33:57;;;;;;;20.03;5.63;;;23.50;99.90;;;;;;5040516;28;21002;-72
2022/08/24 06:36:24;;;;;;;14.23;6.77;;;23.30;99.90;;;;;;5037039;28;27070;-72
2022/08/24 06:38:51;;;;;;;14.13;6.03;;;23.30;99.90;;;;;;5038051;28;20452;-72
2022/08/24 06:41:19;;;;;;;19.57;6.23;;;23.40;99.90;;;;;;5034208;28;20554;-72
2022/08/24 06:43:46;;;;;;;18.00;5.97;;;23.50;99.90;;;;;;5039782;28;20605;-72
2022/08/24 06:46:13;;;;;;;11.43;5.67;;;23.70;99.90;;;;;;5041485;28;20445;-71
2022/08/24 06:48:41;;;;;;;10.63;5.17;;;24.00;99.90;;;;;;5035847;28;20476;-71
2022/08/24 06:51:12;;;;;;;47.30;6.47;;;24.50;99.90;;;;;;5041281;28;20484;-72
2022/08/24 06:53:39;;;;;;;17.80;6.63;;;25.20;99.90;;;;;;5041482;28;20489;-71
2022/08/24 06:56:06;;;;;;;30.30;7.73;;;26.00;99.90;;;;;;5041100;28;20954;-71
2022/08/24 06:58:34;;;;;;;19.27;5.60;;;26.80;99.90;;;;;;5044460;28;20496;-73
2022/08/24 07:01:08;;;;;;;22.93;7.43;;;27.20;99.90;;;;;;5046457;28;20455;-72
2022/08/24 07:03:35;;;;;;;17.43;7.63;;;27.30;99.90;;;;;;5045771;28;20447;-71
2022/08/24 07:06:03;;;;;;;21.47;8.10;;;26.90;99.90;;;;;;5042961;28;20474;-72
2022/08/24 07:08:31;;;;;;;15.80;6.67;;;26.80;99.90;;;;;;5034342;28;20510;-72
2022/08/24 07:10:59;;;;;;;12.13;6.50;;;26.70;99.90;;;;;;5038018;28;20541;-71
2022/08/24 07:13:25;;;;;;;17.93;5.97;;;26.80;99.90;;;;;;5040579;28;20539;-71
2022/08/24 07:15:53;;;;;;;22.83;6.40;;;26.80;99.90;;;;;;5042243;28;20544;-71
2022/08/24 07:18:20;;;;;;;17.80;6.20;;;26.50;99.90;;;;;;5044468;28;20999;-71
2022/08/24 07:20:49;;;;;;;24.20;6.90;;;26.40;99.90;;;;;;5043201;28;20812;-72
2022/08/24 07:23:17;;;;;;;18.83;7.37;;;26.40;99.90;;;;;;5043761;28;20459;-72
2022/08/24 07:25:46;;;;;;;18.97;7.37;;;26.60;99.90;;;;;;5044859;28;20889;-72
2022/08/24 07:28:13;;;;;;;10.87;4.80;;;27.10;99.90;;;;;;5040325;28;20476;-71
2022/08/24 07:30:41;;;;;;;13.57;5.00;;;27.40;99.90;;;;;;5041946;28;20464;-71
2022/08/24 07:33:09;;;;;;;24.60;7.40;;;27.80;99.90;;;;;;5041238;28;20458;-72
2022/08/24 07:35:37;;;;;;;15.60;6.60;;;28.00;99.90;;;;;;5045921;28;20878;-72
2022/08/24 07:38:05;;;;;;;22.37;5.13;;;28.30;99.90;;;;;;5046223;28;20649;-72
2022/08/24 07:40:33;;;;;;;6.70;5.40;;;28.20;99.90;;;;;;5046211;28;20443;-71
2022/08/24 07:43:01;;;;;;;9.30;4.47;;;28.10;99.90;;;;;;5045112;28;20487;-71
2022/08/24 07:45:29;;;;;;;13.67;5.27;;;28.30;99.90;;;;;;5043331;28;20481;-71
2022/08/24 07:47:56;;;;;;;18.07;4.27;;;29.10;99.90;;;;;;5037922;28;20553;-71
2022/08/24 07:50:24;;;;;;;7.60;4.10;;;29.80;99.90;;;;;;5042422;28;20797;-72
2022/08/24 07:52:51;;;;;;;5.60;4.27;;;29.50;99.90;;;;;;5045328;28;20456;-72
2022/08/24 07:55:18;;;;;;;4.57;3.37;;;30.50;99.90;;;;;;5046107;28;20844;-72
2022/08/24 07:57:45;;;;;;;8.43;3.47;;;31.40;99.90;;;;;;5040018;28;20463;-72
2022/08/24 08:00:18;;;;;;;3.83;3.00;;;31.00;99.90;;;;;;5038745;28;20467;-72
2022/08/24 08:02:46;;;;;;;5.30;3.40;;;31.00;99.90;;;;;;5041925;28;20530;-72
2022/08/24 08:05:13;;;;;;;8.60;4.00;;;31.50;99.90;;;;;;5041900;28;20775;-72
2022/08/24 08:07:40;;;;;;;6.70;3.17;;;31.80;99.80;;;;;;5041905;28;20548;-72
2022/08/24 08:10:10;;;;;;;4.57;3.70;;;31.40;99.10;;;;;;5044298;28;20490;-72
2022/08/24 08:12:36;;;;;;;4.17;3.77;;;31.00;98.30;;;;;;5042546;28;20871;-72
2022/08/24 08:15:07;;;;;;;7.77;3.93;;;31.00;98.60;;;;;;5036296;28;20479;-72
2022/08/24 08:17:36;;;;;;;5.10;4.10;;;31.20;98.70;;;;;;5039791;28;20484;-72
2022/08/24 08:20:04;;;;;;;7.73;3.23;;;31.70;98.40;;;;;;5045049;28;20444;-72
2022/08/24 08:25:17;;;;;;;7.80;3.40;;;32.20;97.50;;;;;;5040441;28;20454;-72
2022/08/24 08:27:43;;;;;;;6.43;3.50;;;32.70;96.90;;;;;;5042330;28;20443;-72
2022/08/24 08:30:11;;;;;;;13.47;4.10;;;33.00;96.00;;;;;;5037877;28;20965;-73
2022/08/24 08:32:39;;;;;;;8.00;3.93;;;34.30;94.90;;;;;;5039735;28;20858;-73
2022/08/24 08:35:06;;;;;;;4.63;3.40;;;35.30;91.70;;;;;;5044162;28;20464;-73
2022/08/24 08:37:33;;;;;;;5.50;3.40;;;35.80;90.60;;;;;;5042543;28;20572;-73
2022/08/24 08:40:00;;;;;;;5.53;3.23;;;36.10;87.50;;;;;;5041629;28;20440;-73
2022/08/24 08:42:43;;;;;;;10.57;3.23;;;36.40;86.90;;;;;;5044171;28;20454;-73
2022/08/24 08:45:21;;;;;;;3.70;3.10;;;36.60;84.20;;;;;;5042707;28;20464;-73
2022/08/24 08:48:48;;;;;;;6.77;2.63;;;36.50;79.30;;;;;;5039124;28;20873;-73
2022/08/24 08:51:48;;;;;;;3.60;2.30;;;36.80;77.30;;;;;;5039112;28;20451;-73
2022/08/24 08:54:32;;;;;;;4.43;3.40;;;37.00;74.00;;;;;;5044226;28;20463;-73
2022/08/24 08:57:32;;;;;;;4.33;2.67;;;37.80;70.40;;;;;;5044257;28;20469;-73
2022/08/24 09:00:10;;;;;;;3.83;2.77;;;38.70;64.30;;;;;;5043985;28;20452;-72
2022/08/24 09:03:04;;;;;;;4.17;2.80;;;39.00;62.30;;;;;;5043451;28;20475;-72
2022/08/24 09:05:56;;;;;;;4.10;3.40;;;38.90;60.50;;;;;;5044611;28;20475;-73
2022/08/24 09:08:33;;;;;;;3.50;2.80;;;38.00;59.80;;;;;;5038055;28;20908;-73
2022/08/24 09:11:07;;;;;;;3.90;3.03;;;38.10;59.00;;;;;;5041311;28;20458;-72
2022/08/24 09:13:57;;;;;;;4.00;2.33;;;38.20;60.00;;;;;;5041021;28;20455;-73
2022/08/24 09:16:39;;;;;;;3.90;2.67;;;38.60;58.50;;;;;;5041915;28;20450;-73
2022/08/24 09:19:29;;;;;;;6.10;2.50;;;38.30;60.50;;;;;;5043388;28;20566;-73
2022/08/24 09:22:09;;;;;;;4.53;2.50;;;38.70;58.90;;;;;;5043874;28;21411;-73
2022/08/24 09:24:50;;;;;;;8.90;2.80;;;39.00;58.30;;;;;;5039396;28;20983;-73
2022/08/24 09:27:25;;;;;;;15.67;2.90;;;39.60;58.50;;;;;;5040989;28;20997;-73
2022/08/24 09:30:05;;;;;;;3.13;2.40;;;40.30;56.20;;;;;;5043093;28;20493;-72
2022/08/24 09:32:47;;;;;;;4.00;2.23;;;40.50;56.60;;;;;;5039176;28;20847;-73
2022/08/24 09:35:19;;;;;;;2.70;2.40;;;40.90;55.30;;;;;;5039714;28;20467;-73
2022/08/24 09:37:59;;;;;;;6.03;2.47;;;41.00;54.00;;;;;;5041654;28;20446;-74
2022/08/24 09:40:36;;;;;;;3.83;2.70;;;40.80;55.30;;;;;;5041594;28;20821;-74
2022/08/24 09:43:41;;;;;;;3.60;2.13;;;40.70;53.50;;;;;;5039740;28;20490;-72
2022/08/24 09:46:31;;;;;;;11.67;2.47;;;41.00;52.80;;;;;;5041589;28;20444;-72
2022/08/24 09:49:31;;;;;;;2.57;2.00;;;41.00;53.10;;;;;;5039829;28;20483;-72
2022/08/24 09:52:40;;;;;;;5.60;2.47;;;41.50;52.50;;;;;;5039752;28;20810;-72
2022/08/24 09:55:39;;;;;;;3.90;1.90;;;41.00;51.70;;;;;;5030525;28;20960;-72
2022/08/24 09:58:20;;;;;;;4.87;4.10;;;41.50;51.50;;;;;;5035484;28;20463;-73
2022/08/24 10:00:53;;;;;;;2.80;1.90;;;41.60;51.50;;;;;;5042319;28;20448;-73
2022/08/24 10:03:39;;;;;;;4.40;2.97;;;41.50;50.70;;;;;;5040533;28;20440;-72
2022/08/24 10:06:23;;;;;;;5.30;2.20;;;41.60;50.70;;;;;;5038159;28;21143;-71
2022/08/24 10:09:11;;;;;;;5.63;2.10;;;41.20;50.70;;;;;;5043297;28;20483;-73
2022/08/24 10:11:50;;;;;;;3.60;1.93;;;40.70;50.60;;;;;;5041661;28;20444;-72
2022/08/24 10:14:33;;;;;;;2.07;1.70;;;41.20;51.60;;;;;;5037308;28;20489;-72
2022/08/24 10:17:07;;;;;;;3.00;2.20;;;41.20;50.30;;;;;;5039284;28;20463;-72
2022/08/24 10:20:01;;;;;;;5.40;2.20;;;41.80;51.00;;;;;;5041231;28;20439;-73
2022/08/24 10:22:49;;;;;;;7.77;2.20;;;42.10;49.50;;;;;;5041517;28;20824;-73
2022/08/24 10:25:31;;;;;;;3.17;1.87;;;42.60;49.80;;;;;;5039615;28;20561;-73
2022/08/24 10:28:06;;;;;;;2.23;1.80;;;41.90;48.60;;;;;;5043780;28;20451;-73
2022/08/24 10:31:01;;;;;;;7.10;2.00;;;41.30;48.90;;;;;;5040973;28;20490;-73
2022/08/24 10:33:32;;;;;;;4.40;2.10;;;41.70;48.60;;;;;;5037253;28;20834;-72
2022/08/24 10:36:16;;;;;;;3.47;1.63;;;42.10;48.40;;;;;;5040035;28;20555;-72
2022/08/24 10:42:10;;;;;;;2.30;1.97;;;42.20;47.60;;;;;;5038808;28;20458;-72
2022/08/24 10:44:48;;;;;;;2.37;1.90;;;42.40;48.70;;;;;;5040391;28;21050;-71
2022/08/24 10:47:27;;;;;;;1.43;1.33;;;42.80;47.10;;;;;;5041810;28;20447;-71
2022/08/24 10:50:27;;;;;;;5.57;2.60;;;41.70;47.60;;;;;;5039987;28;20675;-71
2022/08/24 10:53:30;;;;;;;4.73;2.43;;;41.60;48.00;;;;;;5037743;28;20912;-71
2022/08/24 10:56:07;;;;;;;2.40;1.90;;;42.20;47.10;;;;;;5042179;28;21017;-72
2022/08/24 10:58:48;;;;;;;3.50;2.20;;;42.60;46.70;;;;;;5041096;28;20456;-72
2022/08/24 11:01:28;;;;;;;3.30;2.27;;;42.90;46.20;;;;;;5038469;28;20455;-72
2022/08/24 11:04:00;;;;;;;7.13;1.80;;;42.30;47.20;;;;;;5040520;28;20549;-72
2022/08/24 11:06:31;;;;;;;4.30;2.20;;;43.30;46.60;;;;;;5041197;28;20812;-72
2022/08/24 11:09:01;;;;;;;4.20;2.20;;;43.40;45.50;;;;;;5037953;28;20916;-72
2022/08/24 11:11:32;;;;;;;3.17;2.20;;;42.60;45.40;;;;;;5039878;28;20455;-73
2022/08/24 11:14:02;;;;;;;5.70;2.50;;;42.60;45.30;;;;;;5041344;28;20890;-72
2022/08/24 11:16:33;;;;;;;1.93;1.80;;;42.40;45.40;;;;;;5041121;28;20465;-72
2022/08/24 11:19:03;;;;;;;3.40;1.80;;;42.80;45.30;;;;;;5037213;28;20542;-72
2022/08/24 11:21:49;;;;;;;4.53;2.37;;;42.90;44.80;;;;;;5039736;28;20509;-72
2022/08/24 11:24:30;;;;;;;4.23;1.87;;;43.50;45.80;;;;;;5042641;28;20566;-72
2022/08/24 11:26:59;;;;;;;2.97;1.80;;;43.30;45.20;;;;;;5038339;28;20541;-72
2022/08/24 11:29:30;;;;;;;4.80;2.00;;;43.60;44.30;;;;;;5037076;28;20479;-73
2022/08/24 11:31:58;;;;;;;3.40;1.90;;;43.00;44.60;;;;;;5036919;28;20994;-72
2022/08/24 11:34:36;;;;;;;2.77;2.10;;;42.10;45.10;;;;;;5041754;28;20479;-72
2022/08/24 11:37:04;;;;;;;1.67;1.47;;;41.40;45.40;;;;;;5040938;28;20523;-72
2022/08/24 11:39:34;;;;;;;14.80;3.27;;;41.10;46.10;;;;;;5042605;28;20538;-73
2022/08/24 11:42:11;;;;;;;3.90;2.00;;;42.40;45.10;;;;;;5043500;28;20474;-72
2022/08/24 11:44:44;;;;;;;9.63;3.13;;;43.20;44.00;;;;;;5045068;28;20470;-73
2022/08/24 11:47:36;;;;;;;2.43;2.00;;;43.80;43.10;;;;;;5041869;28;20488;-73
2022/08/24 11:50:17;;;;;;;8.60;2.73;;;43.90;43.00;;;;;;5033432;28;20532;-72
2022/08/24 11:52:55;;;;;;;5.73;2.40;;;43.60;43.10;;;;;;5047332;28;20466;-73
2022/08/24 11:55:27;;;;;;;4.93;2.20;;;43.60;42.90;;;;;;5041273;28;21014;-73
2022/08/24 11:58:02;;;;;;;2.43;2.07;;;44.00;43.00;;;;;;5041919;28;20455;-73
2022/08/24 12:00:42;;;;;;;4.57;2.50;;;44.20;42.00;;;;;;5042009;28;20610;-73
2022/08/24 12:03:27;;;;;;;2.77;2.10;;;44.30;41.70;;;;;;5046329;28;20878;-73
2022/08/24 12:06:02;;;;;;;3.53;2.17;;;44.30;41.20;;;;;;5046795;28;20459;-73
2022/08/24 12:08:36;;;;;;;3.10;2.30;;;43.70;41.30;;;;;;5040565;28;20461;-72
2022/08/24 12:11:17;;;;;;;5.67;2.10;;;43.60;41.60;;;;;;5060655;22;20558;-73
2022/08/24 12:13:53;;;;;;;5.23;2.23;;;43.80;42.20;;;;;;5038749;28;20781;-73
2022/08/24 12:16:33;;;;;;;31.97;7.43;;;43.60;41.60;;;;;;5038096;28;20453;-73
2022/08/24 12:19:09;;;;;;;3.40;1.90;;;44.00;41.50;;;;;;5036179;28;21013;-73
2022/08/24 12:21:41;;;;;;;4.80;2.00;;;43.90;41.20;;;;;;5034404;28;20464;-73
2022/08/24 12:24:12;;;;;;;5.13;1.93;;;44.20;41.70;;;;;;5023793;28;20484;-73
2022/08/24 12:26:43;;;;;;;3.33;2.17;;;44.70;40.70;;;;;;5025989;28;20467;-74
2022/08/24 12:29:18;;;;;;;3.00;1.90;;;45.30;40.50;;;;;;5022971;28;20451;-73
2022/08/24 12:31:50;;;;;;;2.23;2.03;;;45.50;39.90;;;;;;5024180;28;20552;-73
2022/08/24 12:34:21;;;;;;;4.93;1.73;;;45.30;39.40;;;;;;5013827;28;21023;-74
2022/08/24 12:37:08;;;;;;;4.77;2.27;;;44.80;40.10;;;;;;5019239;28;20523;-73
2022/08/24 12:39:38;;;;;;;3.67;2.30;;;44.80;40.20;;;;;;5018247;28;20460;-74
2022/08/24 12:42:15;;;;;;;3.60;2.37;;;44.70;39.10;;;;;;5012632;28;20580;-74
2022/08/24 12:44:48;;;;;;;3.03;1.90;;;44.60;39.20;;;;;;5018114;28;20539;-74
2022/08/24 12:47:29;;;;;;;3.80;2.10;;;45.40;39.10;;;;;;5024948;28;20459;-74
2022/08/24 12:50:03;;;;;;;2.77;2.10;;;45.50;39.60;;;;;;5017838;28;20589;-74
2022/08/24 12:53:02;;;;;;;2.33;2.13;;;45.50;39.10;;;;;;5017499;28;20547;-74
2022/08/24 12:56:00;;;;;;;4.63;2.57;;;44.90;39.60;;;;;;4999442;28;20467;-74
2022/08/24 12:58:57;;;;;;;2.23;2.03;;;44.80;39.20;;;;;;5018422;28;20456;-74
2022/08/24 13:01:26;;;;;;;2.03;1.83;;;45.00;38.80;;;;;;5012268;28;20472;-75
2022/08/24 13:04:09;;;;;;;6.07;2.60;;;44.90;38.80;;;;;;5016397;28;20452;-74
2022/08/24 13:06:44;;;;;;;2.23;1.77;;;45.30;38.70;;;;;;5021643;28;20965;-74
2022/08/24 13:09:31;;;;;;;2.40;2.20;;;45.30;38.70;;;;;;5022160;28;20453;-74
2022/08/24 13:12:21;;;;;;;2.90;2.10;;;44.10;38.80;;;;;;5025914;28;21196;-73
2022/08/24 13:14:51;;;;;;;2.03;1.77;;;44.50;39.10;;;;;;5038509;28;20917;-72
2022/08/24 13:17:45;;;;;;;2.90;2.00;;;44.60;38.80;;;;;;5043875;28;20447;-74
2022/08/24 13:20:24;;;;;;;4.70;2.50;;;45.00;38.30;;;;;;5043399;28;20484;-74
2022/08/24 13:23:14;;;;;;;8.23;2.70;;;44.50;38.60;;;;;;5042987;28;20487;-74
2022/08/24 13:26:17;;;;;;;4.40;2.07;;;44.70;38.40;;;;;;5037992;28;20878;-74
2022/08/24 13:28:47;;;;;;;3.83;2.67;;;45.10;38.00;;;;;;5037669;28;20497;-73
2022/08/24 13:31:20;;;;;;;4.40;2.70;;;43.70;38.60;;;;;;5041125;28;21005;-74
2022/08/24 13:33:50;;;;;;;3.03;2.13;;;42.80;39.60;;;;;;5040163;28;20574;-74
2022/08/24 13:36:43;;;;;;;4.53;2.60;;;43.40;39.40;;;;;;5032714;28;20467;-75
2022/08/24 13:39:20;;;;;;;2.40;2.20;;;43.40;40.10;;;;;;5018303;28;20509;-73